Ana Sayfa
METAR-TAF:

METAR-TAF

Havaalanları :

Gillespie County Airport

Fredericksburg, Teksas, Amerika Birleşik Devletleri

Enlem: 30-14-37N, Boylam: 098-54-34W, yükseklik: 517 m

Güncel hava durumu gözlemi

Rapor saat 20:35 UTC de 20 dakika önce yapıldı.
Rüzgar batıdan 6 kt
Sıcaklık 31°C
Nem 40%
Basınç 1013 hPa
Görüş mesafesi: 16.1 km
9000 ft yükseklikte parçalı bulutlu
12000 ft yükseklikte parçalı bulutlu

METAR: KT82 152035Z AUTO 27006KT 10SM SCT090 SCT120 31/16 A2991 RMK AO2 T03140158

Saat: 15:55 (20:55 UTC)


TAF: eksik

4.000'den fazla havaalanı için hava durumu gözlemleri ve tahminleri (METAR ve TAF raporları).

Kullanılabilir istasyonlar harita üzerinde sarı ve kırmızı noktalarla gösterilir.

İstasyonun adını görmek için fareyi noktanın üzerinde gezdirin.

Sonrasında hava gözlem ve tahminlerini görmek için tıklayın.

Haritayı değiştirmek için: yaklaştırmak için siyah artı işaretli yeşil düğmeye ve uzaklaştırmak için de eksi işaretli düğmeye hızla tıklayın; bitişik haritalar için yeşil okları kullanın.


METAR-TAF: